Time;durP1;ratioP1;P1;durP2;ratioP2;P2;SDS_P1;SDS_P2;PMS_P1;PMS_P2;Temp;Humidity;BMP_temperature;BMP_pressure;BME280_temperature;BME280_humidity;BME280_pressure;Samples;Min_cycle;Max_cycle;Signal;HPM_P1;HPM_P2
2023/06/21 03:58:28;;;;;;;7.82;7.15;;;17.50;99.90;;;;;;5190881;23;20251;-68
2023/06/21 04:00:55;;;;;;;7.93;7.07;;;17.40;99.90;;;;;;4975677;28;20314;-67
2023/06/21 04:03:21;;;;;;;7.35;6.65;;;17.50;99.90;;;;;;4975397;28;20207;-67
2023/06/21 04:05:48;;;;;;;7.47;6.97;;;17.50;99.90;;;;;;4975962;28;20205;-67
2023/06/21 04:08:15;;;;;;;7.20;6.70;;;17.50;99.90;;;;;;4975925;28;20301;-67
2023/06/21 04:10:42;;;;;;;7.20;6.68;;;17.50;99.90;;;;;;4998789;23;20231;-70
2023/06/21 04:13:08;;;;;;;7.07;6.53;;;17.50;99.90;;;;;;4975613;28;20681;-70
2023/06/21 04:15:36;;;;;;;6.95;6.45;;;17.50;99.90;;;;;;4975316;28;20570;-69
2023/06/21 04:18:03;;;;;;;8.02;7.43;;;17.60;99.90;;;;;;4975368;28;20207;-69
2023/06/21 04:20:30;;;;;;;7.60;7.00;;;17.60;99.90;;;;;;4975504;28;20219;-69
2023/06/21 04:22:57;;;;;;;7.15;6.65;;;17.60;99.90;;;;;;4975576;28;20204;-69
2023/06/21 04:25:24;;;;;;;8.10;7.38;;;17.70;99.90;;;;;;4975682;28;20199;-69
2023/06/21 04:27:50;;;;;;;8.50;7.80;;;17.80;99.90;;;;;;4975592;28;20203;-69
2023/06/21 04:30:17;;;;;;;10.77;9.65;;;17.90;99.90;;;;;;4975451;28;20223;-68
2023/06/21 04:32:46;;;;;;;11.88;10.10;;;17.90;99.90;;;;;;4975545;28;20196;-68
2023/06/21 04:35:14;;;;;;;10.52;9.60;;;18.00;99.90;;;;;;4975565;28;20237;-67
2023/06/21 04:37:44;;;;;;;10.02;9.15;;;18.20;99.90;;;;;;4975536;28;20685;-68
2023/06/21 04:40:13;;;;;;;8.63;7.93;;;18.30;99.90;;;;;;4976039;28;20257;-68
2023/06/21 04:42:42;;;;;;;7.95;7.35;;;18.40;99.90;;;;;;4976266;28;20651;-67
2023/06/21 04:45:10;;;;;;;8.25;7.65;;;18.50;99.90;;;;;;4976077;28;20250;-68
2023/06/21 04:47:38;;;;;;;9.70;8.70;;;18.70;99.90;;;;;;4975454;28;20211;-68
2023/06/21 04:50:06;;;;;;;8.68;7.90;;;19.00;99.90;;;;;;4974895;28;20713;-67
2023/06/21 04:52:33;;;;;;;9.13;8.32;;;19.20;99.90;;;;;;4975567;28;20238;-67
2023/06/21 04:55:01;;;;;;;11.02;9.60;;;19.50;99.90;;;;;;4975130;28;20666;-66
2023/06/21 04:57:28;;;;;;;10.65;9.57;;;19.90;99.90;;;;;;4975406;28;20572;-68
2023/06/21 04:59:54;;;;;;;9.35;8.60;;;20.30;99.90;;;;;;4975304;28;20223;-66
2023/06/21 05:02:21;;;;;;;9.00;8.30;;;20.60;99.90;;;;;;4975613;28;20207;-68
2023/06/21 05:04:48;;;;;;;10.85;9.85;;;20.70;99.90;;;;;;4975137;28;20203;-68
2023/06/21 05:07:16;;;;;;;9.77;8.88;;;20.90;99.90;;;;;;4974878;28;20210;-69
2023/06/21 07:34:36;;;;;;;6.88;6.18;;;32.10;99.90;;;;;;5464466;23;20325;-69
2023/06/21 07:37:03;;;;;;;8.60;5.65;;;32.20;99.90;;;;;;4975379;28;20234;-68
2023/06/21 07:39:30;;;;;;;8.63;6.10;;;31.80;99.90;;;;;;4976536;28;20253;-68
2023/06/21 07:41:57;;;;;;;8.52;6.45;;;30.80;99.90;;;;;;4976623;28;20210;-68
2023/06/21 07:44:24;;;;;;;9.18;6.30;;;29.70;99.90;;;;;;4976476;28;20258;-65
2023/06/21 07:46:52;;;;;;;8.35;6.20;;;28.60;99.90;;;;;;4976280;28;20206;-66
2023/06/21 07:49:19;;;;;;;8.80;5.68;;;27.50;99.90;;;;;;4977009;28;20633;-69
2023/06/21 07:51:47;;;;;;;6.40;5.82;;;26.70;99.90;;;;;;4976792;28;20223;-70
2023/06/21 07:54:14;;;;;;;9.32;5.93;;;26.00;99.90;;;;;;4976960;28;20709;-69
2023/06/21 07:56:41;;;;;;;9.32;4.22;;;25.40;99.90;;;;;;4976455;28;20625;-69
2023/06/21 07:59:08;;;;;;;15.30;4.10;;;24.70;99.90;;;;;;4976395;28;20206;-69
2023/06/21 08:01:34;;;;;;;15.63;4.30;;;22.10;99.90;;;;;;4976257;28;20203;-71
2023/06/21 08:04:03;;;;;;;33.55;4.75;;;20.30;99.90;;;;;;4975697;28;20714;-73
2023/06/21 08:06:30;;;;;;;12.27;4.35;;;19.40;99.90;;;;;;4976015;28;20199;-74
2023/06/21 08:08:58;;;;;;;7.05;3.53;;;18.60;99.90;;;;;;4975914;28;20203;-74
2023/06/21 08:11:24;;;;;;;6.38;3.22;;;17.80;99.90;;;;;;4975845;28;20226;-75
2023/06/21 08:13:51;;;;;;;4.97;3.17;;;17.40;99.90;;;;;;4975552;28;20706;-75
2023/06/21 08:16:18;;;;;;;5.68;2.88;;;17.20;99.90;;;;;;4975724;28;20210;-75
2023/06/21 08:18:44;;;;;;;17.50;3.60;;;16.90;99.90;;;;;;4975776;28;20203;-75
2023/06/21 08:21:11;;;;;;;14.25;4.25;;;16.40;99.90;;;;;;4975893;28;20184;-76
2023/06/21 08:23:38;;;;;;;11.23;4.05;;;16.10;99.90;;;;;;4975538;28;20246;-75
2023/06/21 08:26:06;;;;;;;6.00;3.05;;;16.00;99.90;;;;;;4975656;28;20220;-76
2023/06/21 08:28:33;;;;;;;4.55;2.30;;;16.20;99.90;;;;;;4975591;28;20203;-76
2023/06/21 08:30:59;;;;;;;2.95;1.80;;;16.40;99.90;;;;;;4975486;28;20223;-76
2023/06/21 08:33:26;;;;;;;5.00;2.25;;;16.60;99.90;;;;;;4975459;28;20203;-76
2023/06/21 08:35:53;;;;;;;3.38;2.00;;;16.70;99.90;;;;;;4975337;28;20211;-76
2023/06/21 08:38:19;;;;;;;5.55;1.90;;;16.80;99.90;;;;;;4976168;28;20191;-76
2023/06/21 08:40:47;;;;;;;2.67;2.30;;;16.70;99.90;;;;;;4975578;28;20199;-76
2023/06/21 08:43:15;;;;;;;1.75;1.63;;;16.80;99.90;;;;;;4975359;28;20207;-76
2023/06/21 08:45:42;;;;;;;2.72;1.52;;;16.80;99.90;;;;;;4974905;28;20571;-75
2023/06/21 08:48:09;;;;;;;3.00;1.60;;;16.90;99.90;;;;;;4974732;28;20199;-75
2023/06/21 08:50:39;;;;;;;3.22;2.13;;;16.80;99.90;;;;;;4975141;28;20238;-75
2023/06/21 08:53:07;;;;;;;2.60;1.63;;;16.90;99.90;;;;;;4975489;28;20203;-75
2023/06/21 08:55:36;;;;;;;1.48;1.40;;;16.90;99.90;;;;;;4975071;28;20223;-76
2023/06/21 08:58:08;;;;;;;1.52;1.02;;;16.90;99.90;;;;;;4974790;28;20211;-75
2023/06/21 09:00:42;;;;;;;0.85;0.85;;;17.10;99.90;;;;;;4975108;28;20235;-75
2023/06/21 09:03:14;;;;;;;0.90;0.90;;;17.10;99.90;;;;;;4975039;28;20191;-75
2023/06/21 09:05:46;;;;;;;1.65;0.85;;;17.20;99.90;;;;;;4974781;28;20199;-75
2023/06/21 09:08:16;;;;;;;0.82;0.82;;;17.20;99.90;;;;;;4974743;28;20555;-75
2023/06/21 09:10:44;;;;;;;1.05;0.95;;;17.30;99.90;;;;;;4977440;28;20230;-75
2023/06/21 09:13:13;;;;;;;0.75;0.75;;;17.30;99.90;;;;;;4987027;28;20662;-75
2023/06/21 09:15:44;;;;;;;0.73;0.73;;;17.40;99.90;;;;;;4985466;28;20227;-75
2023/06/21 09:18:11;;;;;;;0.80;0.80;;;17.50;99.90;;;;;;4978560;28;20203;-75
2023/06/21 09:20:39;;;;;;;0.55;0.55;;;17.50;99.90;;;;;;4974962;28;20215;-75
2023/06/21 09:23:06;;;;;;;0.85;0.85;;;17.70;99.90;;;;;;4974852;28;20200;-75
2023/06/21 09:25:33;;;;;;;1.88;0.90;;;17.70;99.90;;;;;;4974491;28;20223;-75
2023/06/21 09:28:00;;;;;;;0.98;0.95;;;17.90;99.90;;;;;;4974796;28;20210;-75
2023/06/21 09:30:26;;;;;;;0.52;0.52;;;18.10;99.90;;;;;;4974930;28;20206;-75
2023/06/21 09:32:54;;;;;;;0.63;0.63;;;18.40;99.90;;;;;;4974750;28;20218;-75
2023/06/21 09:35:21;;;;;;;1.45;1.20;;;18.60;99.90;;;;;;4974719;28;20226;-75
2023/06/21 09:37:48;;;;;;;1.38;0.90;;;18.60;99.90;;;;;;4974424;28;20211;-75
2023/06/21 09:40:15;;;;;;;1.17;0.98;;;18.70;99.90;;;;;;4974582;28;20211;-75
2023/06/21 09:42:42;;;;;;;2.00;1.00;;;18.70;99.90;;;;;;4974745;28;20200;-75
2023/06/21 09:45:10;;;;;;;1.90;1.23;;;18.90;99.90;;;;;;4974200;28;20227;-75
2023/06/21 09:47:37;;;;;;;1.23;1.17;;;19.10;99.90;;;;;;4974891;28;20235;-75
2023/06/21 09:50:07;;;;;;;1.23;1.08;;;19.50;99.90;;;;;;4974744;28;20206;-75
2023/06/21 09:52:34;;;;;;;1.60;1.50;;;19.70;99.90;;;;;;4974822;28;20226;-75
2023/06/21 09:55:01;;;;;;;1.77;1.63;;;20.20;99.90;;;;;;4974670;28;20714;-75
2023/06/21 09:57:28;;;;;;;3.47;2.42;;;20.20;99.90;;;;;;4975015;28;20218;-76
2023/06/21 09:59:55;;;;;;;3.38;2.17;;;20.10;99.90;;;;;;4974858;28;20203;-75
2023/06/21 10:02:22;;;;;;;4.68;2.47;;;19.90;99.90;;;;;;4978479;28;20199;-76
2023/06/21 10:04:54;;;;;;;7.93;3.28;;;20.00;99.90;;;;;;4978382;28;20222;-76
2023/06/21 10:07:24;;;;;;;5.47;2.65;;;20.00;99.90;;;;;;4978177;28;20635;-75
2023/06/21 10:09:50;;;;;;;6.50;2.95;;;19.80;99.90;;;;;;4978054;28;20250;-75
2023/06/21 10:12:18;;;;;;;3.28;2.20;;;20.10;99.90;;;;;;4977784;28;20698;-75
2023/06/21 10:14:44;;;;;;;4.88;2.85;;;20.30;99.90;;;;;;4977984;28;20223;-75
2023/06/21 10:17:12;;;;;;;3.42;2.33;;;20.40;99.90;;;;;;4978156;28;20206;-75
2023/06/21 10:19:43;;;;;;;6.75;2.67;;;20.30;99.90;;;;;;4978136;28;20214;-75
2023/06/21 10:22:11;;;;;;;3.38;2.40;;;20.40;99.90;;;;;;4978926;28;20246;-75
2023/06/21 10:24:42;;;;;;;3.15;2.40;;;20.30;99.90;;;;;;4977738;28;20706;-75
2023/06/21 10:27:11;;;;;;;9.25;3.03;;;20.70;99.90;;;;;;4978758;28;20187;-74
2023/06/21 10:29:41;;;;;;;5.05;2.78;;;20.60;99.90;;;;;;4977888;28;20210;-72
2023/06/21 10:32:08;;;;;;;5.85;2.90;;;20.50;99.90;;;;;;4977786;28;20630;-73
2023/06/21 10:34:50;;;;;;;6.30;2.30;;;20.60;99.90;;;;;;4977449;28;20230;-72
2023/06/21 10:37:26;;;;;;;3.70;2.58;;;20.30;99.90;;;;;;4977433;28;20211;-71
2023/06/21 10:39:58;;;;;;;13.55;3.30;;;20.40;99.90;;;;;;4977407;28;20191;-71
2023/06/21 10:42:27;;;;;;;6.00;3.20;;;20.40;99.90;;;;;;4977626;28;20190;-72
2023/06/21 10:44:55;;;;;;;5.07;3.30;;;20.40;99.90;;;;;;4977487;28;20234;-74
2023/06/21 10:47:22;;;;;;;6.93;3.22;;;20.60;99.90;;;;;;4977484;28;20202;-72
2023/06/21 10:49:49;;;;;;;7.25;3.70;;;20.70;99.90;;;;;;4977287;28;20206;-72
2023/06/21 10:52:17;;;;;;;5.20;3.53;;;20.90;99.90;;;;;;4977397;28;20250;-73
2023/06/21 10:54:46;;;;;;;6.32;3.67;;;20.90;99.90;;;;;;4977278;28;20218;-73
2023/06/21 10:57:16;;;;;;;8.52;4.22;;;21.20;99.90;;;;;;4977022;28;20210;-72
2023/06/21 10:59:43;;;;;;;5.22;3.85;;;21.10;99.90;;;;;;4977295;28;20200;-72
2023/06/21 11:02:10;;;;;;;3.42;3.22;;;21.40;99.90;;;;;;4977266;28;20205;-74
2023/06/21 11:05:10;;;;;;;4.25;3.25;;;21.70;99.90;;;;;;4977154;28;20219;-74
2023/06/21 11:07:36;;;;;;;3.17;2.70;;;21.60;99.90;;;;;;4967157;28;20211;-74
2023/06/21 11:10:04;;;;;;;3.10;2.78;;;21.70;99.90;;;;;;4977194;28;20194;-74
2023/06/21 11:12:35;;;;;;;6.32;3.45;;;21.80;99.90;;;;;;4976881;28;20234;-74
2023/06/21 11:15:04;;;;;;;2.85;2.65;;;21.40;99.90;;;;;;4977054;28;20222;-74
2023/06/21 11:17:34;;;;;;;3.00;2.80;;;21.50;99.90;;;;;;4977211;28;20199;-74
2023/06/21 11:20:19;;;;;;;2.58;2.38;;;21.90;99.90;;;;;;4977060;28;20557;-74
2023/06/21 11:22:56;;;;;;;5.28;3.10;;;22.40;99.90;;;;;;4976894;28;20554;-74
2023/06/21 11:25:23;;;;;;;3.33;2.60;;;22.00;99.90;;;;;;4976932;28;20219;-74
2023/06/21 11:28:24;;;;;;;4.07;3.67;;;21.70;99.90;;;;;;4976929;28;20213;-75
2023/06/21 11:31:14;;;;;;;5.28;3.88;;;21.30;99.90;;;;;;4977102;28;20253;-75
2023/06/21 11:33:55;;;;;;;3.67;3.38;;;21.10;99.90;;;;;;4976886;28;20226;-75
2023/06/21 11:36:27;;;;;;;3.80;2.75;;;21.60;99.90;;;;;;4976492;28;20219;-76
2023/06/21 11:39:20;;;;;;;6.45;3.20;;;21.80;99.90;;;;;;4976772;28;20187;-75
2023/06/21 11:42:01;;;;;;;4.28;3.35;;;21.70;99.90;;;;;;4976424;28;20194;-75
2023/06/21 11:44:32;;;;;;;3.30;3.00;;;21.70;99.90;;;;;;4976668;28;20222;-75
2023/06/21 11:47:17;;;;;;;4.03;3.67;;;22.10;99.90;;;;;;4976720;28;20551;-75
2023/06/21 11:49:56;;;;;;;4.70;3.63;;;22.50;99.90;;;;;;4976831;28;20191;-75
2023/06/21 11:52:24;;;;;;;2.90;2.80;;;22.40;99.90;;;;;;4977938;28;20258;-75
2023/06/21 11:54:51;;;;;;;3.95;3.17;;;22.70;99.90;;;;;;4981965;28;20326;-75
2023/06/21 11:57:19;;;;;;;5.30;3.58;;;22.70;99.90;;;;;;4977160;28;20184;-75
2023/06/21 11:59:46;;;;;;;4.00;3.60;;;22.50;99.90;;;;;;4976476;28;20199;-74
2023/06/21 12:02:14;;;;;;;7.68;4.00;;;22.20;99.90;;;;;;4976456;28;20234;-74
2023/06/21 12:04:41;;;;;;;6.05;3.60;;;22.10;99.90;;;;;;4976256;28;20230;-74
2023/06/21 12:07:08;;;;;;;3.95;3.65;;;21.80;99.90;;;;;;4976776;28;20207;-75
2023/06/21 12:09:36;;;;;;;3.85;3.53;;;21.70;99.90;;;;;;4998988;23;20226;-73
2023/06/21 12:12:03;;;;;;;4.65;3.55;;;21.70;99.90;;;;;;4976117;28;20250;-73
2023/06/21 12:14:31;;;;;;;5.05;3.70;;;21.80;99.90;;;;;;4976060;28;20222;-73
2023/06/21 12:17:00;;;;;;;4.25;3.80;;;21.70;99.90;;;;;;4976094;28;20227;-73
2023/06/21 12:19:27;;;;;;;4.22;3.88;;;22.10;99.90;;;;;;4975641;28;20634;-73
2023/06/21 12:22:01;;;;;;;3.00;2.80;;;22.60;99.90;;;;;;4975800;28;20522;-74
2023/06/21 12:24:28;;;;;;;3.15;3.00;;;22.70;99.90;;;;;;4976277;28;20195;-74
2023/06/21 12:26:58;;;;;;;2.97;2.78;;;22.60;99.90;;;;;;4979860;28;20294;-74
2023/06/21 12:29:27;;;;;;;3.22;3.03;;;22.30;99.90;;;;;;4980001;28;20264;-74
2023/06/21 12:31:57;;;;;;;5.20;3.60;;;22.40;99.90;;;;;;4979592;28;20230;-73
2023/06/21 12:34:25;;;;;;;5.45;4.22;;;22.20;99.90;;;;;;4979594;28;20192;-73
2023/06/21 12:36:53;;;;;;;4.45;4.07;;;22.10;99.90;;;;;;4979537;28;20527;-73
2023/06/21 12:39:21;;;;;;;7.13;4.65;;;22.00;99.90;;;;;;4979189;28;20309;-73
2023/06/21 12:41:48;;;;;;;4.18;3.90;;;22.20;99.90;;;;;;4979611;28;20199;-72
2023/06/21 12:44:21;;;;;;;4.13;3.92;;;22.70;99.90;;;;;;4979144;28;20199;-73
2023/06/21 12:46:49;;;;;;;3.97;3.63;;;23.30;99.90;;;;;;4980509;28;20268;-73
2023/06/21 12:49:19;;;;;;;5.43;4.03;;;23.60;99.90;;;;;;4979679;28;20254;-72
2023/06/21 12:51:48;;;;;;;4.32;4.03;;;23.90;99.90;;;;;;4979897;28;20223;-74
2023/06/21 12:54:18;;;;;;;4.85;4.45;;;24.30;99.90;;;;;;4979557;28;20242;-73
2023/06/21 12:56:49;;;;;;;4.20;3.90;;;24.60;99.90;;;;;;4979522;28;20507;-76
2023/06/21 12:59:17;;;;;;;4.32;3.53;;;24.80;99.90;;;;;;4979668;28;20273;-75
2023/06/21 13:01:46;;;;;;;3.92;3.63;;;25.00;99.90;;;;;;4979064;28;20210;-75
2023/06/21 13:04:17;;;;;;;6.65;4.25;;;25.20;99.90;;;;;;4978110;28;20695;-76
2023/06/21 13:06:48;;;;;;;4.40;4.10;;;25.50;99.90;;;;;;4979029;28;20190;-75
2023/06/21 13:09:16;;;;;;;4.72;4.13;;;25.80;99.90;;;;;;4965229;28;20249;-75
2023/06/21 13:11:44;;;;;;;4.50;4.20;;;25.70;99.90;;;;;;4986807;28;20263;-75
2023/06/21 13:14:12;;;;;;;5.18;4.30;;;25.60;99.90;;;;;;4973125;28;20211;-74
2023/06/21 13:16:39;;;;;;;3.85;3.60;;;25.90;99.90;;;;;;4986404;28;20563;-75
2023/06/21 13:19:07;;;;;;;3.85;3.60;;;26.10;99.90;;;;;;4987194;28;20232;-75
2023/06/21 13:21:37;;;;;;;4.45;3.90;;;26.20;99.90;;;;;;4986237;28;20642;-75
2023/06/21 13:24:07;;;;;;;6.18;3.78;;;26.30;99.90;;;;;;4981392;28;20209;-75
2023/06/21 13:26:35;;;;;;;8.25;4.25;;;26.20;99.90;;;;;;4980412;28;20242;-74
2023/06/21 13:29:05;;;;;;;4.57;4.13;;;26.10;99.90;;;;;;4978870;28;20257;-74
2023/06/21 13:31:32;;;;;;;4.47;4.18;;;26.20;99.90;;;;;;4979109;28;20191;-75
2023/06/21 13:33:59;;;;;;;4.90;3.70;;;26.50;99.90;;;;;;4979451;28;20273;-75
2023/06/21 13:36:26;;;;;;;5.93;4.53;;;26.60;99.90;;;;;;4982872;28;20202;-75
2023/06/21 13:38:53;;;;;;;3.65;3.40;;;26.60;99.90;;;;;;4983559;28;20562;-74
2023/06/21 13:41:28;;;;;;;4.05;3.75;;;26.80;99.90;;;;;;4983976;28;20228;-74
2023/06/21 13:43:55;;;;;;;4.18;3.88;;;26.90;99.90;;;;;;4984398;28;20204;-75
2023/06/21 13:46:22;;;;;;;4.30;3.88;;;26.90;99.90;;;;;;4982853;28;20543;-75
2023/06/21 13:48:49;;;;;;;4.05;3.75;;;27.10;99.90;;;;;;4982530;28;20277;-75
2023/06/21 13:51:15;;;;;;;4.57;4.07;;;27.30;99.90;;;;;;4978584;28;20198;-75
2023/06/21 13:53:44;;;;;;;4.47;3.92;;;27.50;99.90;;;;;;4978654;28;20222;-76
2023/06/21 13:56:10;;;;;;;5.03;4.40;;;27.70;99.90;;;;;;4978408;28;20398;-76
2023/06/21 13:58:38;;;;;;;4.68;4.15;;;27.70;99.90;;;;;;4978900;28;20281;-76
2023/06/21 14:01:07;;;;;;;5.10;4.03;;;27.80;99.90;;;;;;4980011;28;20205;-75
2023/06/21 14:03:33;;;;;;;4.72;4.40;;;27.70;99.90;;;;;;4982935;28;20231;-75
2023/06/21 14:06:01;;;;;;;5.75;4.32;;;28.00;99.90;;;;;;4978423;28;20207;-75
2023/06/21 14:08:28;;;;;;;5.95;3.70;;;28.10;99.90;;;;;;4977955;28;20241;-75
2023/06/21 14:10:54;;;;;;;5.18;4.70;;;27.90;99.90;;;;;;4978249;28;20206;-74
2023/06/21 14:13:21;;;;;;;7.07;4.85;;;27.80;99.90;;;;;;4978507;28;20207;-74
2023/06/21 14:15:49;;;;;;;7.53;4.88;;;27.90;99.90;;;;;;4978257;28;20206;-74
2023/06/21 14:18:16;;;;;;;7.10;4.40;;;27.90;99.90;;;;;;4978167;28;20226;-74
2023/06/21 14:20:42;;;;;;;5.40;4.80;;;27.90;99.90;;;;;;4977787;28;20210;-74
2023/06/21 14:23:09;;;;;;;4.55;4.22;;;27.80;99.90;;;;;;4977882;28;20206;-74
2023/06/21 14:25:38;;;;;;;5.38;4.50;;;27.80;99.90;;;;;;4977972;28;20218;-74
2023/06/21 14:28:05;;;;;;;4.50;4.10;;;27.80;99.90;;;;;;4977825;28;20231;-75
2023/06/21 14:30:31;;;;;;;5.15;4.28;;;27.60;99.90;;;;;;4978057;28;20199;-74
2023/06/21 14:32:59;;;;;;;4.18;3.92;;;27.60;99.90;;;;;;4977435;28;20225;-74
2023/06/21 14:35:27;;;;;;;5.53;4.90;;;27.50;99.90;;;;;;4978461;28;20209;-75
2023/06/21 14:37:54;;;;;;;4.82;4.53;;;27.50;99.90;;;;;;4978878;28;20286;-75
2023/06/21 14:40:21;;;;;;;4.78;4.13;;;27.50;99.90;;;;;;4977314;28;20203;-71
2023/06/21 14:42:48;;;;;;;6.38;3.80;;;27.60;99.90;;;;;;4977871;28;20199;-74
2023/06/21 14:45:14;;;;;;;4.00;3.70;;;27.60;99.90;;;;;;4977528;28;20202;-74
2023/06/21 14:47:41;;;;;;;3.85;3.55;;;27.70;99.90;;;;;;4977279;28;20609;-74
2023/06/21 14:50:10;;;;;;;3.22;3.03;;;27.90;99.90;;;;;;4977452;28;20190;-74
2023/06/21 14:52:37;;;;;;;3.88;3.35;;;28.10;99.90;;;;;;4977600;28;20226;-75
2023/06/21 14:55:04;;;;;;;4.35;3.42;;;28.10;99.90;;;;;;4978003;28;20203;-74
2023/06/21 14:57:31;;;;;;;4.80;4.10;;;28.10;99.90;;;;;;4977464;28;20202;-73
2023/06/21 14:59:57;;;;;;;3.30;3.10;;;28.10;99.90;;;;;;4977433;28;20230;-72
2023/06/21 15:02:24;;;;;;;3.15;2.95;;;28.10;99.90;;;;;;4977388;28;20199;-72
2023/06/21 15:04:51;;;;;;;5.72;2.92;;;28.10;99.90;;;;;;4977251;28;20206;-73
2023/06/21 15:07:19;;;;;;;3.47;3.25;;;28.10;99.90;;;;;;4977172;28;20202;-72
2023/06/21 15:09:46;;;;;;;3.20;3.00;;;27.80;99.90;;;;;;4976659;28;20242;-72
2023/06/21 15:12:13;;;;;;;5.78;3.22;;;27.80;99.90;;;;;;4976978;28;20202;-72
2023/06/21 15:14:39;;;;;;;3.22;3.03;;;27.70;99.90;;;;;;4977071;28;20245;-72
2023/06/21 15:17:07;;;;;;;3.25;2.72;;;27.70;99.90;;;;;;4977064;28;20203;-72
2023/06/21 15:19:33;;;;;;;2.40;2.17;;;27.70;99.90;;;;;;4976795;28;20242;-72
2023/06/21 15:22:00;;;;;;;2.55;2.42;;;27.80;99.90;;;;;;4976946;28;20224;-73
2023/06/21 15:24:28;;;;;;;2.53;2.33;;;28.00;99.90;;;;;;4976886;28;20210;-72
2023/06/21 15:26:55;;;;;;;2.60;2.50;;;28.00;99.90;;;;;;4976571;28;20686;-72
2023/06/21 15:29:21;;;;;;;2.30;2.20;;;28.00;99.90;;;;;;4976697;28;20342;-71
2023/06/21 15:31:48;;;;;;;2.25;2.15;;;28.00;99.90;;;;;;4976730;28;20198;-71
2023/06/21 15:34:15;;;;;;;1.90;1.88;;;27.90;99.90;;;;;;4976716;28;20234;-71
2023/06/21 15:36:42;;;;;;;2.55;2.45;;;27.90;99.90;;;;;;4976692;28;20379;-73
2023/06/21 15:39:10;;;;;;;3.20;2.40;;;27.70;99.90;;;;;;4976093;28;20629;-71
2023/06/21 15:41:38;;;;;;;2.70;2.60;;;27.60;99.90;;;;;;4976213;28;20202;-70
2023/06/21 15:44:05;;;;;;;2.17;1.98;;;27.40;99.90;;;;;;4976548;28;20598;-71
2023/06/21 15:46:32;;;;;;;2.25;2.05;;;27.30;99.90;;;;;;4976360;28;20206;-71
2023/06/21 15:48:59;;;;;;;2.15;2.08;;;27.20;99.90;;;;;;4976047;28;20223;-72
2023/06/21 15:51:26;;;;;;;2.28;2.20;;;27.10;99.90;;;;;;4976305;28;20214;-70
2023/06/21 15:53:55;;;;;;;2.78;2.65;;;26.90;99.90;;;;;;4976398;28;20254;-71
2023/06/21 15:56:22;;;;;;;3.20;3.00;;;26.80;99.90;;;;;;4976368;28;20215;-71
2023/06/21 15:58:50;;;;;;;3.03;2.90;;;26.70;99.90;;;;;;4975090;28;20706;-71
2023/06/21 16:01:17;;;;;;;4.28;3.25;;;26.60;99.90;;;;;;4976197;28;20237;-70
2023/06/21 16:03:46;;;;;;;2.95;2.75;;;26.40;99.90;;;;;;4976148;28;20198;-70
2023/06/21 16:06:13;;;;;;;2.97;2.78;;;26.30;99.90;;;;;;4975964;28;20206;-70
2023/06/21 16:08:39;;;;;;;5.07;4.70;;;26.20;99.90;;;;;;4975745;28;20234;-71
2023/06/21 16:11:07;;;;;;;4.55;4.25;;;26.10;99.90;;;;;;4979328;28;20551;-70
2023/06/21 16:13:34;;;;;;;4.20;4.00;;;26.00;99.90;;;;;;4976091;28;20581;-71
2023/06/21 16:16:02;;;;;;;4.15;3.75;;;25.90;99.90;;;;;;4976775;28;20210;-71
2023/06/21 16:18:29;;;;;;;3.70;3.50;;;25.80;99.90;;;;;;4976500;28;20229;-71
2023/06/21 16:20:57;;;;;;;3.75;3.45;;;25.70;99.90;;;;;;4975682;28;20238;-71
2023/06/21 16:23:24;;;;;;;3.78;3.47;;;25.70;99.90;;;;;;4975971;28;20207;-71
2023/06/21 16:25:51;;;;;;;3.10;2.83;;;25.60;99.90;;;;;;4975813;28;20570;-70
2023/06/21 16:28:18;;;;;;;5.63;3.70;;;25.50;99.90;;;;;;4975471;28;20219;-71
2023/06/21 16:30:45;;;;;;;7.03;4.25;;;25.40;99.90;;;;;;4975673;28;20202;-70
2023/06/21 16:33:13;;;;;;;5.22;4.00;;;25.30;99.90;;;;;;4975533;28;20227;-71
2023/06/21 16:35:41;;;;;;;4.38;3.83;;;25.30;99.90;;;;;;4975496;28;20206;-71
2023/06/21 16:38:08;;;;;;;3.90;3.60;;;25.30;99.90;;;;;;4975652;28;20627;-71
2023/06/21 16:40:35;;;;;;;3.50;3.35;;;25.30;99.90;;;;;;4975394;28;20217;-72
2023/06/21 16:43:02;;;;;;;3.70;3.50;;;25.30;99.90;;;;;;4975538;28;20206;-71
2023/06/21 16:45:28;;;;;;;4.20;3.20;;;25.20;99.90;;;;;;4975391;28;20207;-71
2023/06/21 16:47:56;;;;;;;3.80;3.20;;;25.10;99.90;;;;;;4975311;28;20213;-72
2023/06/21 16:50:24;;;;;;;3.45;3.25;;;25.10;99.90;;;;;;4975475;28;20662;-72
2023/06/21 16:52:51;;;;;;;3.33;3.15;;;25.10;99.90;;;;;;4975558;28;20203;-72
2023/06/21 16:55:18;;;;;;;3.38;3.08;;;25.10;99.90;;;;;;4975140;28;20222;-71
2023/06/21 16:57:44;;;;;;;5.63;4.25;;;25.10;99.90;;;;;;4974756;28;20618;-72
2023/06/21 17:00:12;;;;;;;4.85;4.50;;;25.10;99.90;;;;;;4975213;28;20187;-72
2023/06/21 17:02:39;;;;;;;5.88;4.65;;;25.10;99.90;;;;;;4975086;28;20206;-72
2023/06/21 17:05:07;;;;;;;5.10;4.70;;;25.10;99.90;;;;;;4974610;28;20574;-71
2023/06/21 17:07:36;;;;;;;6.05;5.30;;;25.10;99.90;;;;;;4974902;28;20213;-71
2023/06/21 17:10:03;;;;;;;4.35;4.00;;;25.10;99.90;;;;;;4974400;28;20281;-72
2023/06/21 17:12:29;;;;;;;4.78;4.30;;;25.10;99.90;;;;;;4974505;28;20674;-73
2023/06/21 17:14:56;;;;;;;5.30;4.90;;;25.10;99.90;;;;;;4974859;28;20246;-72
2023/06/21 17:17:23;;;;;;;5.10;4.63;;;25.20;99.90;;;;;;4974895;28;20202;-71
2023/06/21 17:19:49;;;;;;;6.60;4.03;;;25.20;99.90;;;;;;4974763;28;20250;-73
2023/06/21 17:22:16;;;;;;;4.22;3.88;;;25.20;99.90;;;;;;4974628;28;20209;-73
2023/06/21 17:24:44;;;;;;;3.88;3.58;;;25.20;99.90;;;;;;4975688;28;20203;-73
2023/06/21 17:27:11;;;;;;;4.38;4.07;;;25.10;99.90;;;;;;4975038;28;20206;-73
2023/06/21 17:29:37;;;;;;;4.07;3.67;;;25.10;99.90;;;;;;4974657;28;20227;-72
2023/06/21 17:32:05;;;;;;;4.53;4.13;;;25.10;99.90;;;;;;4975207;28;20187;-72
2023/06/21 17:34:31;;;;;;;4.28;3.95;;;25.10;99.90;;;;;;4974484;28;20234;-73
2023/06/21 17:36:58;;;;;;;3.72;3.40;;;24.90;99.90;;;;;;4973839;28;20206;-73
2023/06/21 17:39:25;;;;;;;4.32;3.85;;;24.90;99.90;;;;;;4974514;28;20230;-72
2023/06/21 17:41:53;;;;;;;3.70;3.45;;;24.90;99.90;;;;;;4974573;28;20203;-72
2023/06/21 17:44:19;;;;;;;4.82;3.95;;;24.90;99.90;;;;;;4974391;28;20188;-72
2023/06/21 17:46:46;;;;;;;6.85;4.47;;;24.80;99.90;;;;;;4974601;28;20253;-72
2023/06/21 17:49:13;;;;;;;10.45;5.50;;;24.80;99.90;;;;;;4974548;28;20227;-72
2023/06/21 17:51:41;;;;;;;5.38;4.60;;;24.60;99.90;;;;;;4974605;28;20203;-72
2023/06/21 17:54:07;;;;;;;4.82;4.43;;;24.50;99.90;;;;;;4974211;28;20218;-72
2023/06/21 17:56:34;;;;;;;3.83;3.63;;;24.50;99.90;;;;;;4974466;28;20191;-73
2023/06/21 17:59:04;;;;;;;3.92;3.63;;;24.50;99.90;;;;;;4974384;28;20229;-73
2023/06/21 18:01:31;;;;;;;3.45;3.35;;;24.40;99.90;;;;;;4974430;28;20229;-72
2023/06/21 18:03:57;;;;;;;3.72;3.50;;;24.40;99.90;;;;;;4974495;28;20210;-73
2023/06/21 18:06:25;;;;;;;3.53;3.22;;;24.30;99.90;;;;;;4974011;28;20214;-72
2023/06/21 18:08:52;;;;;;;5.57;3.70;;;24.30;99.90;;;;;;4974091;28;20241;-72
2023/06/21 18:11:19;;;;;;;3.30;3.10;;;24.20;99.90;;;;;;4974484;28;20241;-75
2023/06/21 18:13:45;;;;;;;3.60;3.40;;;24.10;99.90;;;;;;4974460;28;20219;-72
2023/06/21 18:16:14;;;;;;;2.97;2.78;;;23.90;99.90;;;;;;4974898;28;20199;-74
2023/06/21 18:18:41;;;;;;;2.90;2.65;;;23.90;99.90;;;;;;4974197;28;20257;-73
2023/06/21 18:21:07;;;;;;;3.20;3.10;;;23.80;99.90;;;;;;4974734;28;20203;-75
2023/06/21 18:23:34;;;;;;;3.45;3.25;;;23.80;99.90;;;;;;4978044;28;20198;-74
2023/06/21 18:26:01;;;;;;;4.05;3.78;;;23.70;99.90;;;;;;4977453;28;20203;-74
2023/06/21 18:28:27;;;;;;;3.13;2.92;;;23.60;99.90;;;;;;4977599;28;20234;-73
2023/06/21 18:30:54;;;;;;;3.42;3.22;;;23.50;99.90;;;;;;4977830;28;20229;-73
2023/06/21 18:33:24;;;;;;;3.60;3.28;;;23.50;99.90;;;;;;4977728;28;20203;-74
2023/06/21 18:35:51;;;;;;;3.15;2.97;;;23.50;99.90;;;;;;4977830;28;20207;-75
2023/06/21 18:38:17;;;;;;;3.47;3.38;;;23.40;99.90;;;;;;4977945;28;20261;-73
2023/06/21 18:40:44;;;;;;;3.25;3.05;;;23.30;99.90;;;;;;4977678;28;20203;-74
2023/06/21 18:43:11;;;;;;;3.35;3.15;;;23.30;99.90;;;;;;4977371;28;20666;-74
2023/06/21 18:45:38;;;;;;;3.33;3.03;;;23.20;99.90;;;;;;4977655;28;20203;-74
2023/06/21 18:48:04;;;;;;;3.53;3.30;;;23.20;99.90;;;;;;4977599;28;20223;-73
2023/06/21 18:50:33;;;;;;;3.25;3.05;;;23.10;99.90;;;;;;4977379;28;20570;-75
2023/06/21 18:53:00;;;;;;;3.38;3.17;;;23.00;99.90;;;;;;4977494;28;20241;-75
2023/06/21 18:55:28;;;;;;;3.22;3.10;;;23.00;99.90;;;;;;4977400;28;20222;-75
2023/06/21 18:57:55;;;;;;;3.25;3.05;;;22.90;99.90;;;;;;4977950;28;20302;-72
2023/06/21 19:00:22;;;;;;;3.55;3.30;;;22.90;99.90;;;;;;4977017;28;20686;-73
2023/06/21 19:02:48;;;;;;;2.92;2.83;;;22.80;99.90;;;;;;4976989;28;20209;-73
2023/06/21 19:05:15;;;;;;;2.45;2.30;;;22.80;99.90;;;;;;4977278;28;20225;-73
2023/06/21 19:07:43;;;;;;;3.28;3.08;;;22.70;99.90;;;;;;4977045;28;20203;-72
2023/06/21 19:10:10;;;;;;;3.90;3.42;;;22.70;99.90;;;;;;4977232;28;20221;-74
2023/06/21 19:12:38;;;;;;;3.63;3.42;;;22.60;99.90;;;;;;4977386;28;20183;-74